createdAt,value
2022-11-29T00:01:59.441Z,49.06
2022-11-29T00:04:26.870Z,48.34
2022-11-29T00:06:56.566Z,48.82
2022-11-29T00:09:28.769Z,48.88
2022-11-29T00:12:12.425Z,48.87
2022-11-29T00:14:44.052Z,49.13
2022-11-29T00:17:11.322Z,48.67
2022-11-29T00:19:38.566Z,48.82
2022-11-29T00:22:06.311Z,48.90
2022-11-29T00:24:35.535Z,49.12
2022-11-29T00:27:10.149Z,49.20
2022-11-29T00:29:37.231Z,49.31
2022-11-29T00:32:06.622Z,49.24
2022-11-29T00:34:33.827Z,49.29
2022-11-29T00:37:01.220Z,49.46
2022-11-29T00:39:28.690Z,49.41
2022-11-29T00:41:55.535Z,49.47
2022-11-29T00:44:23.166Z,50.26
2022-11-29T00:46:50.205Z,49.95
2022-11-29T00:49:17.388Z,50.10
2022-11-29T00:51:44.355Z,50.72
2022-11-29T00:54:12.797Z,50.61
2022-11-29T00:56:40.365Z,51.17
2022-11-29T00:59:07.285Z,50.98
2022-11-29T01:01:34.708Z,50.99
2022-11-29T01:04:02.536Z,51.41
2022-11-29T01:06:29.775Z,51.92
2022-11-29T01:09:00.671Z,51.72
2022-11-29T01:11:28.850Z,51.87
2022-11-29T01:13:57.596Z,52.04
2022-11-29T01:16:25.952Z,51.78
2022-11-29T01:18:53.401Z,51.92
2022-11-29T01:21:21.427Z,52.02
2022-11-29T01:23:48.867Z,52.05
2022-11-29T01:26:16.775Z,52.02
2022-11-29T01:28:46.290Z,51.96
2022-11-29T01:31:15.085Z,51.99
2022-11-29T01:33:42.897Z,52.05
2022-11-29T01:36:11.080Z,52.06
2022-11-29T01:38:38.716Z,52.08
2022-11-29T01:41:07.280Z,51.40
2022-11-29T01:43:38.892Z,51.78
2022-11-29T01:46:08.493Z,51.39
2022-11-29T01:48:35.746Z,51.33
2022-11-29T01:51:02.881Z,51.37
2022-11-29T01:53:30.096Z,51.50
2022-11-29T01:56:02.315Z,51.65
2022-11-29T01:58:30.366Z,51.58
2022-11-29T02:00:57.954Z,51.15
2022-11-29T02:03:25.560Z,51.45
2022-11-29T02:05:57.128Z,51.48
2022-11-29T02:08:27.996Z,51.11
2022-11-29T02:10:58.316Z,51.20
2022-11-29T02:13:34.216Z,51.33
2022-11-29T02:16:11.093Z,51.53
2022-11-29T02:19:00.800Z,51.37
2022-11-29T02:21:31.921Z,51.69
2022-11-29T02:24:00.304Z,51.56
2022-11-29T02:26:41.911Z,51.65
2022-11-29T02:29:19.739Z,51.48
2022-11-29T02:31:57.455Z,51.86
2022-11-29T02:34:38.486Z,51.75
2022-11-29T02:37:19.091Z,51.97
2022-11-29T02:39:55.432Z,51.85
2022-11-29T02:42:32.211Z,51.68
2022-11-29T02:45:10.369Z,51.85
2022-11-29T02:47:44.630Z,51.74
2022-11-29T02:50:20.958Z,51.66
2022-11-29T02:52:51.601Z,51.97
2022-11-29T02:55:25.061Z,51.49
2022-11-29T02:57:59.256Z,51.90
2022-11-29T03:00:26.622Z,52.01
2022-11-29T03:02:53.527Z,52.03
2022-11-29T03:05:30.467Z,52.21
2022-11-29T03:08:08.271Z,52.01
2022-11-29T03:10:43.166Z,52.41
2022-11-29T03:13:17.284Z,52.54
2022-11-29T03:15:53.210Z,52.09
2022-11-29T03:18:30.425Z,52.67
2022-11-29T03:21:09.053Z,52.37
2022-11-29T03:23:46.216Z,52.20
2022-11-29T03:26:16.194Z,52.70
2022-11-29T03:28:49.421Z,52.72
2022-11-29T03:31:21.488Z,52.50
2022-11-29T03:33:59.050Z,52.58
2022-11-29T03:36:29.210Z,52.58
2022-11-29T03:38:59.137Z,52.66
2022-11-29T03:41:31.256Z,52.78
2022-11-29T03:44:07.495Z,52.72
2022-11-29T03:46:38.707Z,52.92
2022-11-29T03:49:10.296Z,52.88
2022-11-29T03:51:44.199Z,52.97
2022-11-29T03:54:13.656Z,52.96
2022-11-29T03:56:41.445Z,52.91
2022-11-29T03:59:16.976Z,52.77
2022-11-29T04:01:44.604Z,52.71
2022-11-29T04:04:21.637Z,53.11
2022-11-29T04:06:58.715Z,52.81
2022-11-29T04:09:29.282Z,52.88
2022-11-29T04:12:07.352Z,53.20
2022-11-29T04:14:44.833Z,52.94
2022-11-29T04:17:25.490Z,53.12
2022-11-29T04:19:52.466Z,53.02
2022-11-29T04:22:29.037Z,53.20
2022-11-29T04:25:05.908Z,53.01
2022-11-29T04:27:33.860Z,52.97
2022-11-29T04:30:02.607Z,52.90
2022-11-29T04:32:33.054Z,52.97
2022-11-29T04:35:06.773Z,52.95
2022-11-29T04:37:43.326Z,53.37
2022-11-29T04:40:20.847Z,53.22
2022-11-29T04:42:50.771Z,53.12
2022-11-29T04:45:17.670Z,53.45
2022-11-29T04:47:45.828Z,53.34
2022-11-29T04:50:23.156Z,53.46
2022-11-29T04:52:59.663Z,53.56
2022-11-29T04:55:31.270Z,53.49
2022-11-29T04:58:04.430Z,53.35
2022-11-29T05:00:35.785Z,53.59
2022-11-29T05:03:07.268Z,53.42
2022-11-29T05:05:43.270Z,53.14
2022-11-29T05:08:19.555Z,53.62
2022-11-29T05:10:55.650Z,53.21
2022-11-29T05:13:32.426Z,53.34
2022-11-29T05:16:02.829Z,53.55
2022-11-29T05:18:39.861Z,53.69
2022-11-29T05:21:11.305Z,53.64
2022-11-29T05:23:47.201Z,53.83
2022-11-29T05:26:19.834Z,53.61
2022-11-29T05:28:47.741Z,53.71
2022-11-29T05:31:24.529Z,53.31
2022-11-29T05:33:59.330Z,53.86
2022-11-29T05:36:35.351Z,53.65
2022-11-29T05:39:03.381Z,53.51
2022-11-29T05:41:31.300Z,53.78
2022-11-29T05:44:01.150Z,53.94
2022-11-29T05:46:37.536Z,53.68
2022-11-29T05:49:13.400Z,53.74
2022-11-29T05:51:45.015Z,53.72
2022-11-29T05:54:21.580Z,53.96
2022-11-29T05:56:48.454Z,53.63
2022-11-29T05:59:20.699Z,54.24
2022-11-29T06:01:57.633Z,54.43
2022-11-29T06:04:33.364Z,54.28
2022-11-29T06:07:09.121Z,54.25
2022-11-29T06:09:40.799Z,54.51
2022-11-29T06:12:23.694Z,54.00
2022-11-29T06:15:00.355Z,54.35
2022-11-29T06:17:28.260Z,54.08
2022-11-29T06:19:55.154Z,54.36
2022-11-29T06:22:22.060Z,54.45
2022-11-29T06:24:58.557Z,54.34
2022-11-29T06:27:26.593Z,54.45
2022-11-29T06:30:03.071Z,54.29
2022-11-29T06:32:30.683Z,54.03
2022-11-29T06:34:59.342Z,53.84
2022-11-29T06:37:30.007Z,53.86
2022-11-29T06:39:56.862Z,53.60
2022-11-29T06:42:23.640Z,53.53
2022-11-29T06:44:50.520Z,53.12
2022-11-29T06:47:23.916Z,53.00
2022-11-29T06:49:53.855Z,53.25
2022-11-29T06:52:30.630Z,52.83
2022-11-29T06:55:08.036Z,53.17
2022-11-29T06:57:44.348Z,52.89
2022-11-29T07:00:16.655Z,52.53
2022-11-29T07:02:44.516Z,52.02
2022-11-29T07:05:20.324Z,51.92
2022-11-29T07:07:48.605Z,52.21
2022-11-29T07:10:17.327Z,51.70
2022-11-29T07:12:45.205Z,51.48
2022-11-29T07:15:14.040Z,51.24
2022-11-29T07:17:50.970Z,51.28
2022-11-29T07:20:24.852Z,51.09
2022-11-29T07:23:01.402Z,50.74
2022-11-29T07:25:29.205Z,50.41
2022-11-29T07:28:11.580Z,49.91
2022-11-29T07:30:51.310Z,49.84
2022-11-29T07:33:23.131Z,49.53
2022-11-29T07:35:56.877Z,49.63
2022-11-29T07:38:43.415Z,49.48
2022-11-29T07:41:15.328Z,49.81
2022-11-29T07:43:51.945Z,49.50
2022-11-29T07:46:18.711Z,49.45
2022-11-29T07:48:45.362Z,43.67
2022-11-29T07:51:12.618Z,43.80
2022-11-29T07:53:41.308Z,43.97
2022-11-29T07:56:09.471Z,44.74
2022-11-29T07:58:36.484Z,44.83
2022-11-29T08:01:03.382Z,44.62
2022-11-29T08:03:30.135Z,44.61
2022-11-29T08:05:56.802Z,44.82
2022-11-29T08:08:23.595Z,45.11
2022-11-29T08:10:50.276Z,45.11
2022-11-29T08:13:19.139Z,45.11
2022-11-29T08:15:46.261Z,45.05
2022-11-29T08:18:13.537Z,45.05
2022-11-29T08:20:41.937Z,45.31
2022-11-29T08:23:11.197Z,45.44
2022-11-29T08:25:37.989Z,45.32
2022-11-29T08:28:05.665Z,45.14
2022-11-29T08:30:32.342Z,45.15
2022-11-29T08:32:59.326Z,45.10
2022-11-29T08:35:26.156Z,45.74
2022-11-29T08:37:54.115Z,46.05
2022-11-29T08:40:21.291Z,46.00
2022-11-29T08:42:48.064Z,45.99
2022-11-29T08:45:14.986Z,45.87
2022-11-29T08:47:42.706Z,45.81
2022-11-29T08:50:14.444Z,45.94
2022-11-29T08:52:52.130Z,46.21
2022-11-29T08:55:23.202Z,46.15
2022-11-29T08:57:50.639Z,46.30
2022-11-29T09:00:18.722Z,46.13
2022-11-29T09:02:45.506Z,45.84
2022-11-29T09:05:12.263Z,45.69
2022-11-29T09:07:39.286Z,45.71
2022-11-29T09:10:08.488Z,45.52
2022-11-29T09:12:36.352Z,45.30
2022-11-29T09:15:05.292Z,45.33
2022-11-29T09:17:32.217Z,44.96
2022-11-29T09:19:58.942Z,45.09
2022-11-29T09:22:25.827Z,45.07
2022-11-29T09:24:52.616Z,44.82
2022-11-29T09:27:19.399Z,45.03
2022-11-29T09:29:46.318Z,44.87
2022-11-29T09:32:13.047Z,44.63
2022-11-29T09:34:40.361Z,44.83
2022-11-29T09:37:07.038Z,44.59
2022-11-29T09:39:33.764Z,44.46
2022-11-29T09:42:10.236Z,43.98
2022-11-29T09:44:40.211Z,44.20
2022-11-29T09:47:10.075Z,44.10
2022-11-29T09:49:46.155Z,43.85
2022-11-29T09:52:22.844Z,44.23
2022-11-29T09:54:52.746Z,43.99
2022-11-29T09:57:19.956Z,44.10
2022-11-29T09:59:49.460Z,43.67
2022-11-29T10:02:21.804Z,44.02
2022-11-29T10:04:53.941Z,43.86
2022-11-29T10:07:23.714Z,43.78
2022-11-29T10:09:53.921Z,43.91
2022-11-29T10:12:29.022Z,43.75
2022-11-29T10:14:57.283Z,43.67
2022-11-29T10:17:27.321Z,43.72
2022-11-29T10:19:58.436Z,43.44
2022-11-29T10:22:35.196Z,43.80
2022-11-29T10:25:02.881Z,43.64
2022-11-29T10:27:30.326Z,43.46
2022-11-29T10:29:57.495Z,43.86
2022-11-29T10:32:25.597Z,44.05
2022-11-29T10:34:52.510Z,44.00
2022-11-29T10:37:20.586Z,43.97
2022-11-29T10:39:58.930Z,44.12
2022-11-29T10:42:37.232Z,43.67
2022-11-29T10:45:05.681Z,44.03
2022-11-29T10:47:32.656Z,43.91
2022-11-29T10:49:59.585Z,44.10
2022-11-29T10:52:26.347Z,44.22
2022-11-29T10:54:56.357Z,44.31
2022-11-29T10:57:23.238Z,44.39
2022-11-29T10:59:59.185Z,44.28
2022-11-29T11:02:26.642Z,44.63
2022-11-29T11:04:54.106Z,44.49
2022-11-29T11:07:24.217Z,44.95
2022-11-29T11:09:52.280Z,45.12
2022-11-29T11:12:20.821Z,44.85
2022-11-29T11:14:47.881Z,44.90
2022-11-29T11:17:16.561Z,44.91
2022-11-29T11:19:43.557Z,44.59
2022-11-29T11:22:19.396Z,44.77
2022-11-29T11:24:46.586Z,45.25
2022-11-29T11:27:13.726Z,44.92
2022-11-29T11:29:42.560Z,44.92
2022-11-29T11:32:19.215Z,45.23
2022-11-29T11:34:54.497Z,45.05
2022-11-29T11:37:23.043Z,45.23
2022-11-29T11:39:51.523Z,45.03
2022-11-29T11:42:31.533Z,45.17
2022-11-29T11:44:58.718Z,45.26
2022-11-29T11:47:27.785Z,45.12
2022-11-29T11:49:56.801Z,45.17
2022-11-29T11:52:25.614Z,45.66
2022-11-29T11:54:54.918Z,45.29
2022-11-29T11:57:23.383Z,45.28
2022-11-29T11:59:51.162Z,45.37
2022-11-29T12:02:28.809Z,45.74
2022-11-29T12:04:58.127Z,45.59
2022-11-29T12:07:59.798Z,45.64
2022-11-29T12:10:21.551Z,45.62
2022-11-29T12:12:49.865Z,45.72
2022-11-29T12:15:21.031Z,45.79
2022-11-29T12:17:49.555Z,45.58
2022-11-29T12:20:17.767Z,45.70
2022-11-29T12:22:51.150Z,45.78
2022-11-29T12:25:21.990Z,45.88
2022-11-29T12:27:49.683Z,46.07
2022-11-29T12:30:17.312Z,45.98
2022-11-29T12:32:47.338Z,45.70
2022-11-29T12:35:23.236Z,45.84
2022-11-29T12:37:56.136Z,45.83
2022-11-29T12:40:28.666Z,46.26
2022-11-29T12:42:56.816Z,45.93
2022-11-29T12:45:33.396Z,46.22
2022-11-29T12:48:09.262Z,45.96
2022-11-29T12:50:45.499Z,46.46
2022-11-29T12:53:22.553Z,46.31
2022-11-29T12:55:52.539Z,46.22
2022-11-29T12:58:19.608Z,46.51
2022-11-29T13:00:55.779Z,46.27
2022-11-29T13:03:38.941Z,46.52
2022-11-29T13:06:15.322Z,46.29
2022-11-29T13:08:54.241Z,46.43
2022-11-29T13:11:21.263Z,46.51
2022-11-29T13:13:53.418Z,46.41
2022-11-29T13:16:31.521Z,46.75
2022-11-29T13:19:12.247Z,46.51
2022-11-29T13:21:48.283Z,46.40
2022-11-29T13:24:22.007Z,46.37
2022-11-29T13:26:49.567Z,46.85
2022-11-29T13:29:18.136Z,46.88
2022-11-29T13:31:46.246Z,46.89
2022-11-29T13:34:24.449Z,46.57
2022-11-29T13:37:00.266Z,46.98
2022-11-29T13:39:27.413Z,46.96
2022-11-29T13:42:01.409Z,47.10
2022-11-29T13:44:33.678Z,46.71
2022-11-29T13:47:10.348Z,47.05
2022-11-29T13:49:46.239Z,47.14
2022-11-29T13:52:22.196Z,47.22
2022-11-29T13:54:48.956Z,46.74
2022-11-29T13:57:16.698Z,47.29
2022-11-29T13:59:48.803Z,46.95
2022-11-29T14:02:25.342Z,47.19
2022-11-29T14:04:52.396Z,47.02
2022-11-29T14:07:19.846Z,47.10
2022-11-29T14:09:49.755Z,46.86
2022-11-29T14:12:16.760Z,47.07
2022-11-29T14:14:53.417Z,47.41
2022-11-29T14:17:29.339Z,47.32
2022-11-29T14:20:15.969Z,47.08
2022-11-29T14:23:02.601Z,47.38
2022-11-29T14:28:17.223Z,47.56
2022-11-29T14:30:44.201Z,47.05
2022-11-29T14:33:14.111Z,47.07
2022-11-29T14:35:50.118Z,47.52
2022-11-29T14:38:31.156Z,47.19
2022-11-29T14:41:03.597Z,47.28
2022-11-29T14:43:34.480Z,47.63
2022-11-29T14:46:10.324Z,47.67
2022-11-29T14:48:38.491Z,47.66
2022-11-29T14:51:09.448Z,47.29
2022-11-29T14:53:37.663Z,47.64
2022-11-29T14:56:14.372Z,47.69
2022-11-29T14:58:41.124Z,47.41
2022-11-29T15:01:10.906Z,47.66
2022-11-29T15:03:42.818Z,47.76
2022-11-29T15:06:13.347Z,47.68
2022-11-29T15:08:50.401Z,47.75
2022-11-29T15:11:25.435Z,47.64
2022-11-29T15:14:00.446Z,47.39
2022-11-29T15:16:27.697Z,47.77
2022-11-29T15:19:02.045Z,47.73
2022-11-29T15:21:37.769Z,47.47
2022-11-29T15:24:12.197Z,47.52
2022-11-29T15:26:39.169Z,47.44
2022-11-29T15:29:14.048Z,47.53
2022-11-29T15:31:42.338Z,47.86
2022-11-29T15:34:18.422Z,47.84
2022-11-29T15:36:45.236Z,47.67
2022-11-29T15:39:25.339Z,47.36
2022-11-29T15:41:52.172Z,47.62
2022-11-29T15:44:22.601Z,47.68
2022-11-29T15:49:18.371Z,47.89
2022-11-29T15:51:48.718Z,47.94
2022-11-29T15:54:25.825Z,47.58
2022-11-29T15:56:55.301Z,47.75
2022-11-29T15:59:37.571Z,47.73
2022-11-29T16:02:08.298Z,47.96
2022-11-29T16:04:42.200Z,47.88
2022-11-29T16:07:12.548Z,47.93
2022-11-29T16:09:41.133Z,47.89
2022-11-29T16:12:11.811Z,48.02
2022-11-29T16:14:48.505Z,47.70
2022-11-29T16:17:15.651Z,47.95
2022-11-29T16:19:43.382Z,47.80
2022-11-29T16:22:11.431Z,47.74
2022-11-29T16:24:39.364Z,47.87
2022-11-29T16:27:07.541Z,47.84
2022-11-29T16:29:36.665Z,47.89
2022-11-29T16:32:12.610Z,48.22
2022-11-29T16:34:41.914Z,47.85
2022-11-29T16:37:15.941Z,47.88
2022-11-29T16:39:45.490Z,47.91
2022-11-29T16:42:25.789Z,48.15
2022-11-29T16:44:54.422Z,47.80
2022-11-29T16:47:22.701Z,48.25
2022-11-29T16:49:52.622Z,47.90
2022-11-29T16:52:23.849Z,48.32
2022-11-29T16:54:51.042Z,48.04
2022-11-29T16:57:17.961Z,48.25
2022-11-29T16:59:45.415Z,47.99
2022-11-29T17:02:13.038Z,48.35
2022-11-29T17:04:40.206Z,48.67
2022-11-29T17:07:08.335Z,48.19
2022-11-29T17:09:35.586Z,47.96
2022-11-29T17:12:02.805Z,47.68
2022-11-29T17:14:30.087Z,47.46
2022-11-29T17:16:57.349Z,47.53
2022-11-29T17:19:24.441Z,48.25
2022-11-29T17:21:52.061Z,48.82
2022-11-29T17:24:20.195Z,48.21
2022-11-29T17:26:47.380Z,47.74
2022-11-29T17:29:14.966Z,47.81
2022-11-29T17:31:43.743Z,47.67
2022-11-29T17:36:37.588Z,48.02
2022-11-29T17:39:05.588Z,47.87
2022-11-29T17:41:33.622Z,48.07
2022-11-29T17:44:00.741Z,47.67
2022-11-29T17:46:30.358Z,48.03
2022-11-29T17:49:00.171Z,47.57
2022-11-29T17:54:23.998Z,47.63
2022-11-29T17:56:51.357Z,47.53
2022-11-29T17:59:18.215Z,47.49
2022-11-29T18:01:47.659Z,47.45
2022-11-29T18:04:14.685Z,47.42
2022-11-29T18:06:41.759Z,47.43
2022-11-29T18:09:10.710Z,47.26
2022-11-29T18:11:46.815Z,47.18
2022-11-29T18:14:16.101Z,47.00
2022-11-29T18:16:45.259Z,47.24
2022-11-29T18:19:13.351Z,46.88
2022-11-29T18:21:40.159Z,47.23
2022-11-29T18:24:07.392Z,47.04
2022-11-29T18:26:35.152Z,46.85
2022-11-29T18:29:02.146Z,47.10
2022-11-29T18:31:30.831Z,46.94
2022-11-29T18:34:00.085Z,46.74
2022-11-29T18:36:29.615Z,46.49
2022-11-29T18:38:58.035Z,46.52
2022-11-29T18:41:25.418Z,46.33
2022-11-29T18:44:01.458Z,46.28
2022-11-29T18:46:38.367Z,46.48
2022-11-29T18:49:07.215Z,46.15
2022-11-29T18:51:34.877Z,46.20
2022-11-29T18:54:02.237Z,45.90
2022-11-29T18:56:30.548Z,45.91
2022-11-29T19:01:25.708Z,46.17
2022-11-29T19:03:53.623Z,46.03
2022-11-29T19:06:21.690Z,45.44
2022-11-29T19:08:48.735Z,45.53
2022-11-29T19:11:17.992Z,45.21
2022-11-29T19:13:44.677Z,45.62
2022-11-29T19:16:13.681Z,45.62
2022-11-29T19:18:40.600Z,45.24
2022-11-29T19:21:08.507Z,45.22
2022-11-29T19:23:35.555Z,45.45
2022-11-29T19:26:06.238Z,45.25
2022-11-29T19:28:35.226Z,45.47
2022-11-29T19:31:02.143Z,45.14
2022-11-29T19:33:29.178Z,45.42
2022-11-29T19:35:55.881Z,45.34
2022-11-29T19:38:22.678Z,45.39
2022-11-29T19:40:49.441Z,45.43
2022-11-29T19:43:16.310Z,44.92
2022-11-29T19:45:43.080Z,45.04
2022-11-29T19:48:09.995Z,45.26
2022-11-29T19:50:36.846Z,45.18
2022-11-29T19:53:03.696Z,45.13
2022-11-29T19:55:30.821Z,44.89
2022-11-29T19:57:57.607Z,44.66
2022-11-29T20:00:24.481Z,44.89
2022-11-29T20:02:51.223Z,44.94
2022-11-29T20:05:18.082Z,44.88
2022-11-29T20:07:44.925Z,44.75
2022-11-29T20:10:12.275Z,45.19
2022-11-29T20:12:39.276Z,44.80
2022-11-29T20:15:06.556Z,45.01
2022-11-29T20:17:33.321Z,45.01
2022-11-29T20:20:00.340Z,44.80
2022-11-29T20:22:27.442Z,44.45
2022-11-29T20:24:58.235Z,44.55
2022-11-29T20:29:53.041Z,44.51
2022-11-29T20:32:21.533Z,44.98
2022-11-29T20:34:48.513Z,44.31
2022-11-29T20:37:21.293Z,44.45
2022-11-29T20:39:50.860Z,44.68
2022-11-29T20:42:26.418Z,44.46
2022-11-29T20:44:57.061Z,44.82
2022-11-29T20:47:24.901Z,44.95
2022-11-29T20:49:52.407Z,44.48
2022-11-29T20:52:30.333Z,44.47
2022-11-29T20:54:56.971Z,44.53
2022-11-29T20:57:23.843Z,44.51
2022-11-29T20:59:50.580Z,44.49
2022-11-29T21:02:17.262Z,44.30
2022-11-29T21:04:44.291Z,44.14
2022-11-29T21:07:11.068Z,43.87
2022-11-29T21:09:37.699Z,43.89
2022-11-29T21:12:09.845Z,43.95
2022-11-29T21:14:36.599Z,43.96
2022-11-29T21:17:03.550Z,43.42
2022-11-29T21:19:30.301Z,43.48
2022-11-29T21:22:10.450Z,43.58
2022-11-29T21:25:10.871Z,43.86
2022-11-29T21:27:58.660Z,43.54
2022-11-29T21:30:49.613Z,43.23
2022-11-29T21:33:47.569Z,43.50
2022-11-29T21:36:36.431Z,43.39
2022-11-29T21:39:34.784Z,43.42
2022-11-29T21:42:27.659Z,43.13
2022-11-29T21:45:19.279Z,43.29
2022-11-29T21:48:15.420Z,43.03
2022-11-29T21:51:10.949Z,43.04
2022-11-29T21:53:49.736Z,43.04
2022-11-29T21:56:37.437Z,42.82
2022-11-29T21:59:15.731Z,43.24
2022-11-29T22:01:52.772Z,43.09
2022-11-29T22:04:31.922Z,43.09
2022-11-29T22:07:08.552Z,43.26
2022-11-29T22:09:35.221Z,43.12
2022-11-29T22:12:14.631Z,42.83
2022-11-29T22:14:48.894Z,42.95
2022-11-29T22:17:15.703Z,43.28
2022-11-29T22:19:47.926Z,43.14
2022-11-29T22:22:14.989Z,43.79
2022-11-29T22:24:41.817Z,43.56
2022-11-29T22:27:08.640Z,43.74
2022-11-29T22:29:35.306Z,44.24
2022-11-29T22:32:02.568Z,44.23
2022-11-29T22:34:29.341Z,44.66
2022-11-29T22:36:56.230Z,44.64
2022-11-29T22:39:23.292Z,45.53
2022-11-29T22:41:54.174Z,45.46
2022-11-29T22:44:21.684Z,45.54
2022-11-29T22:46:48.570Z,45.41
2022-11-29T22:49:15.416Z,45.48
2022-11-29T22:51:42.177Z,45.62
2022-11-29T22:54:10.676Z,45.26
2022-11-29T22:56:39.881Z,45.35
2022-11-29T22:59:06.747Z,45.67
2022-11-29T23:01:34.962Z,46.09
2022-11-29T23:04:04.152Z,45.90
2022-11-29T23:06:32.645Z,46.08
2022-11-29T23:09:03.181Z,45.54
2022-11-29T23:11:30.496Z,45.70
2022-11-29T23:13:57.378Z,45.83
2022-11-29T23:16:25.996Z,45.90
2022-11-29T23:18:53.935Z,45.74
2022-11-29T23:21:22.482Z,45.67
2022-11-29T23:23:55.858Z,45.35
2022-11-29T23:26:25.242Z,45.63
2022-11-29T23:28:52.872Z,45.57
2022-11-29T23:31:20.733Z,45.28
2022-11-29T23:33:48.071Z,45.61
2022-11-29T23:36:16.072Z,45.89
2022-11-29T23:38:43.571Z,45.67
2022-11-29T23:41:11.743Z,45.55
2022-11-29T23:43:39.693Z,45.78
2022-11-29T23:46:08.000Z,46.25
2022-11-29T23:48:34.877Z,46.31
2022-11-29T23:51:01.706Z,46.12
2022-11-29T23:53:28.839Z,46.31
2022-11-29T23:55:57.577Z,46.17
2022-11-29T23:58:24.406Z,46.73
